Airfield :
LOGIN :

Register | Disclaimer

   EN    FR    IT 

 










Legend :    VFR   Marginal VFR   IFR   Intensive IFR   Very Intensive IFR
Visi :
Ceiling :
>= 8 km
>= 3000ft
5 to 8 km
1000 to 3000 ft
1500m to 5 km
500 to 1000 ft
800 to 1500m
200 to 500 ft
< 800m
< 200 ft
Symbols :   Thunderstorms  Fog  Heavy snow  Heavy precipitations  Wind > 20 kt
SIGMETs :     Misc.  Thunderstorms  Icing  Turbulence  Mountain Waves  Volcanic Ashes






- Airport Elevation : 404 ft
- IATA code : WRO


EPWR - Wroclaw

CURRENT METAR :
  • 291130Z 16009KT 9999 -RA FEW040 05/01 Q1003

EXPIRED METARs :
  • 291100Z 19006KT 160V230 9999 -RA BKN040 06/M01 Q1004
  • 291030Z 16007KT 9999 BKN042 05/M02 Q1004
  • 291000Z 17009KT 9999 BKN048 04/M03 Q1005
  • 290930Z 17009KT 9999 BKN042 04/M03 Q1005
  • 290900Z 17011KT CAVOK 04/M03 Q1005

TAF TAF EPWR
Valid from the 29 at 12:00 until the 01 at 12:00 UTC


291130Z 2912/0112 19012KT 9999 BKN035
TEMPO 2912/2916 19015G25KT BKN014
TEMPO 2916/0104 21020G35KT 4000 SHRA BKN014CB
TEMPO 0106/0112 24015G25KT BKN014CB



MET'MAP, your aeronautical weather chart ! - Copyright ORBIFLY December 2007 - Disclaimer

ORBIFLY MET'MAP TEAM :

Programming & Development : Alexandra Zaïnal
Concept & original design : Baudouin d'Aumeries
Assistance for programming : Marc-Olivier Méhu
Technical & hardware support : Manuel Goepfert

Contact : metmap@orbifly.com




SOURCES & CREDITS :

   NOAA